Morgenster — PHMY — position and weather

sailwx.info

Track history (hours):
 
Tides and Currents Weather Stations Pressure Air Temp Water Temp Dewpoint Dewpoint Depression Visibility Wind Speed Wind Dir Waves Ship Positions

Morgenster

Last reported at 2017-Jul-24 20:00 UTC. Time now 2017-Jul-28 06:33 UTC.
Position N 58°59' E 019°34'.

Length 38 m; draft 2.4 m.

Type: Sailing vessel. MMSI: 245136000.

Date/timePositionNaut miles runAvg speedWind from/ knotsBaromVisibWave heightAir tempDewpointWater temp
2017-Jul-24 20:00N 58°59' E 019°34'5 8.1
2017-Jul-24 19:25N 59°02' E 019°41'3 7.9
2017-Jul-24 19:00N 59°04' E 019°47'5 7.2
2017-Jul-24 18:19N 59°06' E 019°55'2 6.7
2017-Jul-24 18:00N 59°07' E 019°59'4 7.0
2017-Jul-24 17:24N 59°10' E 020°05'3 7.2
2017-Jul-24 17:00N 59°11' E 020°10'4 7.8
2017-Jul-24 16:30N 59°13' E 020°17'4 7.7
2017-Jul-24 16:00N 59°15' E 020°23'23 7.8
2017-Jul-24 13:01N 59°30' E 020°58'3 6.7
2017-Jul-24 12:31N 59°32' E 021°03'3 5.1
2017-Jul-24 12:00N 59°34' E 021°06'3 6.3
2017-Jul-24 11:30N 59°36' E 021°11'3 5.6
2017-Jul-24 11:01N 59°38' E 021°15'2 4.1
2017-Jul-24 10:30N 59°40' E 021°15'3 5.6
2017-Jul-24 10:00N 59°42' E 021°11'1 1.4
2017-Jul-24 09:30N 59°43' E 021°10'1 1.5
2017-Jul-24 09:00N 59°43' E 021°09'1 1.8
2017-Jul-24 08:31N 59°44' E 021°07'1 2.5
2017-Jul-24 08:00N 59°44' E 021°05'2 4.5
2017-Jul-24 07:30N 59°44' E 021°10'2 4.0
2017-Jul-24 07:00N 59°44' E 021°14'3 5.4
2017-Jul-24 06:31N 59°44' E 021°19'1 2.9
2017-Jul-24 06:00N 59°46' E 021°20'1 1.9
2017-Jul-24 05:31N 59°47' E 021°20'1 1.2
2017-Jul-24 05:00N 59°47' E 021°20'1 1.9
2017-Jul-24 04:30N 59°48' E 021°20'1 2.4
2017-Jul-24 04:00N 59°49' E 021°21'2 3.8
2017-Jul-24 03:30N 59°50' E 021°24'2 3.5
2017-Jul-24 03:00N 59°51' E 021°27'1 2.6
2017-Jul-24 02:30N 59°52' E 021°29'1 2.4
2017-Jul-24 02:01N 59°53' E 021°31'1 2.3
2017-Jul-24 01:30N 59°54' E 021°33'1 2.7
2017-Jul-24 01:00N 59°54' E 021°35'1 2.8
2017-Jul-24 00:30N 59°55' E 021°38'1 2.6
2017-Jul-24 00:00N 59°56' E 021°39'1 2.6
2017-Jul-23 23:30N 59°57' E 021°41'1 2.6
2017-Jul-23 23:00N 59°58' E 021°42'1 2.2
2017-Jul-23 22:30N 59°59' E 021°42'1 2.5
2017-Jul-23 22:00N 60°01' E 021°42'1 2.9
2017-Jul-23 21:30N 60°02' E 021°41'1 1.9
2017-Jul-23 21:00N 60°03' E 021°41'2 3.4
2017-Jul-23 20:30N 60°05' E 021°41'1 2.5
2017-Jul-23 20:00N 60°06' E 021°42'1 2.3
2017-Jul-23 19:30N 60°07' E 021°41'1 2.3
2017-Jul-23 19:01N 60°08' E 021°41'1 2.6
2017-Jul-23 18:30N 60°09' E 021°42'2 3.2
2017-Jul-23 18:01N 60°11' E 021°42'3 5.7
2017-Jul-23 17:30N 60°13' E 021°45'3 6.5
2017-Jul-23 17:00N 60°14' E 021°51'3 6.3
2017-Jul-23 16:30N 60°16' E 021°57'2 4.3
2017-Jul-23 16:00N 60°16' E 022°01'3 5.4
2017-Jul-23 15:31N 60°19' E 022°04'2 3.9
2017-Jul-23 15:00N 60°21' E 022°05'3 5.4
2017-Jul-23 14:30N 60°23' E 022°07'2 3.9
2017-Jul-23 14:00N 60°25' E 022°08'2 3.9
2017-Jul-23 13:30N 60°26' E 022°11'1 2.9
2017-Jul-23 13:01N 60°26' E 022°14'0 0.7
2017-Jul-23 12:30N 60°26' E 022°15'0 0.0
2017-Jul-23 11:59N 60°26' E 022°15'0 0.0
2017-Jul-23 11:29N 60°26' E 022°15'0 0.0
2017-Jul-23 10:59N 60°26' E 022°15'0 0.0
2017-Jul-23 10:29N 60°26' E 022°15'0 0.0
2017-Jul-23 09:59N 60°26' E 022°15'0 0.0
2017-Jul-23 09:29N 60°26' E 022°15'0 0.0
2017-Jul-23 08:59N 60°26' E 022°15'0 0.0
2017-Jul-23 08:29N 60°26' E 022°15'0 0.0
2017-Jul-23 07:59N 60°26' E 022°15'0 0.0
2017-Jul-23 07:29N 60°26' E 022°15'0 0.0
2017-Jul-23 06:54N 60°26' E 022°15'0 0.0
2017-Jul-23 06:29N 60°26' E 022°15'0 0.0
2017-Jul-23 05:59N 60°26' E 022°15'0 0.0
2017-Jul-23 05:29N 60°26' E 022°15'0 0.0
2017-Jul-23 04:59N 60°26' E 022°15'0 0.0
2017-Jul-23 04:29N 60°26' E 022°15'0 0.0
2017-Jul-23 03:59N 60°26' E 022°15'0 0.0
2017-Jul-23 03:29N 60°26' E 022°15'0 0.0
2017-Jul-23 02:59N 60°26' E 022°15'0 0.0
2017-Jul-23 02:29N 60°26' E 022°15'0 0.0
2017-Jul-23 01:59N 60°26' E 022°15'0 0.0
2017-Jul-23 01:29N 60°26' E 022°15'0 0.0
2017-Jul-23 00:59N 60°26' E 022°15'0 0.0
2017-Jul-23 00:29N 60°26' E 022°15'0 0.0
2017-Jul-22 23:59N 60°26' E 022°15'0 0.0
2017-Jul-22 23:29N 60°26' E 022°15'0 0.0
2017-Jul-22 22:59N 60°26' E 022°15'0 0.0
2017-Jul-22 22:29N 60°26' E 022°15'0 0.0
2017-Jul-22 21:59N 60°26' E 022°15'0 0.0
2017-Jul-22 21:29N 60°26' E 022°15'0 0.0
2017-Jul-22 20:58N 60°26' E 022°15'0 0.0
2017-Jul-22 20:29N 60°26' E 022°15'0 0.0
2017-Jul-22 19:58N 60°26' E 022°15'0 0.0
2017-Jul-22 19:27N 60°26' E 022°15'0 0.0
2017-Jul-22 18:59N 60°26' E 022°15'0 0.0
2017-Jul-22 18:29N 60°26' E 022°15'0 0.0
2017-Jul-22 17:59N 60°26' E 022°15'0 0.0
2017-Jul-22 17:29N 60°26' E 022°15'0 0.0
2017-Jul-22 16:59N 60°26' E 022°15'0 0.0
2017-Jul-22 16:30N 60°26' E 022°15'0 0.0
2017-Jul-22 15:59N 60°26' E 022°15'0 0.0
2017-Jul-22 15:29N 60°26' E 022°15'0 0.1
2017-Jul-22 15:00N 60°26' E 022°15'3 3.2
2017-Jul-22 14:00N 60°25' E 022°09'1 2.7
2017-Jul-22 13:30N 60°24' E 022°07'0 0.8
2017-Jul-22 13:00N 60°24' E 022°08'2 3.5
2017-Jul-22 12:30N 60°25' E 022°11'2 3.7
2017-Jul-22 12:00N 60°26' E 022°14'0 0.9
2017-Jul-22 11:30N 60°26' E 022°15'0 0.0
2017-Jul-22 11:00N 60°26' E 022°15'0 0.0
2017-Jul-22 10:30N 60°26' E 022°15'0 0.0
2017-Jul-22 10:00N 60°26' E 022°15'0 0.0
2017-Jul-22 09:30N 60°26' E 022°15'0 0.0
2017-Jul-22 09:00N 60°26' E 022°15'0 0.1
2017-Jul-22 08:30N 60°26' E 022°15'0 0.1
2017-Jul-22 08:00N 60°26' E 022°15'0 0.0
2017-Jul-22 07:30N 60°26' E 022°15'0 0.0
2017-Jul-22 07:00N 60°26' E 022°15'0 0.0
2017-Jul-22 06:30N 60°26' E 022°15'0 0.0
2017-Jul-22 06:00N 60°26' E 022°15'0 0.0
2017-Jul-22 05:30N 60°26' E 022°15'0 0.0
2017-Jul-22 05:00N 60°26' E 022°15'0 0.0
2017-Jul-22 04:30N 60°26' E 022°15'0 0.0
2017-Jul-22 04:00N 60°26' E 022°15'0 0.0
2017-Jul-22 03:30N 60°26' E 022°15'0 0.0
2017-Jul-22 02:57N 60°26' E 022°15'0 0.0
2017-Jul-22 02:30N 60°26' E 022°15'0 0.0
2017-Jul-22 01:57N 60°26' E 022°15'0 0.0
2017-Jul-22 01:30N 60°26' E 022°15'0 0.0
2017-Jul-22 00:57N 60°26' E 022°15'0 0.0
2017-Jul-22 00:30N 60°26' E 022°15'0 0.0
2017-Jul-22 00:00N 60°26' E 022°15'0 0.0
2017-Jul-21 23:30N 60°26' E 022°15'0 0.0
2017-Jul-21 23:00N 60°26' E 022°15'0 0.0
2017-Jul-21 22:30N 60°26' E 022°15'0 0.0
2017-Jul-21 22:00N 60°26' E 022°15'0 0.0
2017-Jul-21 21:30N 60°26' E 022°15'0 0.0
2017-Jul-21 21:00N 60°26' E 022°15'0 0.0
2017-Jul-21 20:30N 60°26' E 022°15'0 0.0
2017-Jul-21 19:57N 60°26' E 022°15'0 0.0
2017-Jul-21 19:30N 60°26' E 022°15'0 0.0
2017-Jul-21 18:57N 60°26' E 022°15'0 0.0
2017-Jul-21 18:30N 60°26' E 022°15'0 0.0
2017-Jul-21 18:00N 60°26' E 022°15'0 0.0
2017-Jul-21 17:27N 60°26' E 022°15'0 0.0
2017-Jul-21 17:00N 60°26' E 022°15'0 0.0
2017-Jul-21 16:28N 60°26' E 022°15'0 0.0
2017-Jul-21 16:01N 60°26' E 022°15'0 0.0
2017-Jul-21 15:30N 60°26' E 022°15'0 0.0
2017-Jul-21 15:00N 60°26' E 022°15'0 0.0
2017-Jul-21 14:30N 60°26' E 022°15'0 0.0
2017-Jul-21 14:00N 60°26' E 022°15'0 0.0
2017-Jul-21 13:30N 60°26' E 022°15'0 0.0
2017-Jul-21 13:00N 60°26' E 022°15'0 0.0
2017-Jul-21 12:30N 60°26' E 022°15'0 0.0
2017-Jul-21 12:00N 60°26' E 022°15'0 0.0
2017-Jul-21 11:30N 60°26' E 022°15'0 0.0
2017-Jul-21 11:00N 60°26' E 022°15'0 0.0
2017-Jul-21 10:30N 60°26' E 022°15'0 0.0
2017-Jul-21 10:00N 60°26' E 022°15'0 0.0
2017-Jul-21 09:30N 60°26' E 022°15'0 0.0
2017-Jul-21 09:00N 60°26' E 022°15'0 0.0
2017-Jul-21 08:30N 60°26' E 022°15'0 0.0
2017-Jul-21 08:00N 60°26' E 022°15'0 0.0
2017-Jul-21 07:30N 60°26' E 022°15'0 0.0
2017-Jul-21 07:00N 60°26' E 022°15'0 0.0
2017-Jul-21 06:30N 60°26' E 022°15'0 0.0
2017-Jul-21 06:00N 60°26' E 022°15'0 0.0
2017-Jul-21 05:30N 60°26' E 022°15'0 0.0
2017-Jul-21 05:00N 60°26' E 022°15'0 0.0
2017-Jul-21 04:30N 60°26' E 022°15'0 0.0
2017-Jul-21 04:00N 60°26' E 022°15'0 0.0
2017-Jul-21 03:30N 60°26' E 022°15'0 0.0
2017-Jul-21 03:00N 60°26' E 022°15'0 0.0
2017-Jul-21 02:30N 60°26' E 022°15'0 0.0
2017-Jul-21 02:00N 60°26' E 022°15'0 0.0
2017-Jul-21 01:30N 60°26' E 022°15'0 0.0
2017-Jul-21 01:00N 60°26' E 022°15'0 0.0
2017-Jul-21 00:30N 60°26' E 022°15'0 0.0
2017-Jul-21 00:00N 60°26' E 022°15'0 0.0
2017-Jul-20 23:30N 60°26' E 022°15'0 0.0
2017-Jul-20 23:00N 60°26' E 022°15'0 0.0
2017-Jul-20 22:30N 60°26' E 022°15'0 0.0
2017-Jul-20 22:00N 60°26' E 022°15'0 0.0
2017-Jul-20 21:30N 60°26' E 022°15'0 0.0
2017-Jul-20 20:56N 60°26' E 022°15'0 0.0
2017-Jul-20 20:29N 60°26' E 022°15'0 0.0
2017-Jul-20 20:00N 60°26' E 022°15'0 0.0
2017-Jul-20 19:27N 60°26' E 022°15'0 0.0
2017-Jul-20 18:57N 60°26' E 022°15'0 0.0
2017-Jul-20 18:30N 60°26' E 022°15'0 0.0
2017-Jul-20 18:00N 60°26' E 022°15'0 0.0
2017-Jul-20 17:30N 60°26' E 022°15'0 0.0
2017-Jul-20 17:00N 60°26' E 022°15'0 0.0
2017-Jul-20 16:28N 60°26' E 022°15'0 0.0
2017-Jul-20 15:57N 60°26' E 022°15'0 0.0
2017-Jul-20 15:30N 60°26' E 022°15'0 0.0
2017-Jul-20 15:00N 60°26' E 022°15'0 0.0
2017-Jul-20 14:00N 60°26' E 022°15'0 0.0
2017-Jul-20 13:30N 60°26' E 022°15'0 0.0
2017-Jul-20 13:00N 60°26' E 022°15'0 0.0
2017-Jul-20 12:30N 60°26' E 022°15'0 0.0
2017-Jul-20 12:00N 60°26' E 022°15'0 0.0
2017-Jul-20 11:30N 60°26' E 022°15'0 0.0
2017-Jul-20 11:00N 60°26' E 022°15'0 0.0
2017-Jul-20 10:30N 60°26' E 022°15'0 0.0
2017-Jul-20 10:00N 60°26' E 022°15'0 0.0
2017-Jul-20 09:31N 60°26' E 022°15'1 1.2
2017-Jul-20 09:00N 60°26' E 022°14'1 2.0
2017-Jul-20 08:30N 60°26' E 022°12'3 5.1
2017-Jul-20 08:00N 60°24' E 022°08'3 6.5
2017-Jul-20 07:30N 60°21' E 022°05'3 6.4
2017-Jul-20 07:00N 60°18' E 022°02'3 6.1
2017-Jul-20 06:30N 60°16' E 021°58'3 6.1
2017-Jul-20 06:00N 60°14' E 021°53'3 5.2
2017-Jul-20 05:30N 60°12' E 021°55'0 0.2
2017-Jul-20 04:59N 60°12' E 021°55'0 0.0
2017-Jul-20 04:29N 60°12' E 021°55'0 0.0
2017-Jul-20 03:59N 60°12' E 021°55'0 0.0
2017-Jul-20 03:29N 60°12' E 021°55'0 0.0
2017-Jul-20 02:59N 60°12' E 021°55'0 0.0
2017-Jul-20 02:29N 60°12' E 021°55'0 0.0
2017-Jul-20 01:59N 60°12' E 021°55'0 0.0
2017-Jul-20 01:29N 60°12' E 021°55'0 0.0
2017-Jul-20 00:59N 60°12' E 021°55'0 0.0
2017-Jul-20 00:29N 60°12' E 021°55'0 0.0
2017-Jul-19 23:59N 60°12' E 021°55'0 0.0
2017-Jul-19 23:29N 60°12' E 021°55'0 0.0
2017-Jul-19 22:59N 60°12' E 021°55'0 0.0
2017-Jul-19 22:29N 60°12' E 021°55'0 0.0
2017-Jul-19 21:59N 60°12' E 021°55'0 0.0
2017-Jul-19 21:29N 60°12' E 021°55'0 0.0
2017-Jul-19 20:59N 60°12' E 021°55'0 0.0
2017-Jul-19 20:29N 60°12' E 021°55'0 0.0
2017-Jul-19 20:00N 60°12' E 021°55'0 0.0
2017-Jul-19 19:28N 60°12' E 021°55'0 0.0
2017-Jul-19 18:59N 60°12' E 021°55'0 0.0
2017-Jul-19 18:29N 60°12' E 021°55'0 0.0
2017-Jul-19 17:59N 60°12' E 021°55'0 0.0
2017-Jul-19 17:29N 60°12' E 021°55'0 0.0
2017-Jul-19 16:59N 60°12' E 021°55'0 0.0
2017-Jul-19 16:29N 60°12' E 021°55'0 0.0
2017-Jul-19 15:59N 60°12' E 021°55'0 0.0
2017-Jul-19 15:29N 60°12' E 021°55'0 0.0
2017-Jul-19 14:59N 60°12' E 021°55'0 0.0
2017-Jul-19 14:29N 60°12' E 021°55'0 0.0
2017-Jul-19 13:59N 60°12' E 021°55'0 0.0
2017-Jul-19 13:29N 60°12' E 021°55'0 0.0
2017-Jul-19 12:59N 60°12' E 021°55'0 0.0
2017-Jul-19 12:29N 60°12' E 021°55'0 0.0
2017-Jul-19 12:00N 60°12' E 021°55'0 0.4
2017-Jul-19 11:30N 60°12' E 021°55'1 2.5
2017-Jul-19 11:00N 60°12' E 021°58'3 5.1
2017-Jul-19 10:30N 60°13' E 022°02'2 4.6
2017-Jul-19 10:00N 60°14' E 022°07'2 4.5
2017-Jul-19 09:30N 60°12' E 022°10'2 4.3
2017-Jul-19 09:00N 60°11' E 022°14'2 3.9
2017-Jul-19 08:30N 60°10' E 022°17'3 5.5
2017-Jul-19 08:00N 60°07' E 022°18'3 5.3
2017-Jul-19 07:30N 60°05' E 022°20'3 5.4
2017-Jul-19 07:00N 60°03' E 022°22'3 5.8
2017-Jul-19 06:30N 59°60' E 022°23'3 5.9
2017-Jul-19 06:00N 59°57' E 022°23'3 5.5
2017-Jul-19 05:30N 59°54' E 022°25'2 4.6
2017-Jul-19 05:00N 59°54' E 022°30'3 5.3
2017-Jul-19 04:30N 59°55' E 022°35'3 5.2
2017-Jul-19 04:00N 59°55' E 022°40'3 5.3
2017-Jul-19 03:30N 59°54' E 022°45'3 5.4
2017-Jul-19 03:00N 59°52' E 022°49'3 5.2
2017-Jul-19 02:30N 59°51' E 022°53'3 5.2
2017-Jul-19 02:00N 59°48' E 022°52'3 5.0
2017-Jul-19 01:30N 59°47' E 022°56'3 5.0
2017-Jul-19 01:00N 59°46' E 023°01'3 5.9
2017-Jul-19 00:30N 59°44' E 023°04'2 4.8
2017-Jul-19 00:00N 59°43' E 023°08'3 5.1
2017-Jul-18 23:30N 59°42' E 023°13'3 6.2
2017-Jul-18 23:00N 59°41' E 023°19'4 7.4
2017-Jul-18 22:30N 59°39' E 023°26'4 7.2
2017-Jul-18 22:00N 59°38' E 023°32'4 7.0
2017-Jul-18 21:30N 59°36' E 023°38'3 6.5
2017-Jul-18 21:00N 59°35' E 023°44'3 6.8
2017-Jul-18 20:30N 59°34' E 023°51'3 5.9
2017-Jul-18 20:00N 59°34' E 023°57'3 6.3
2017-Jul-18 19:30N 59°33' E 024°02'3 5.1
2017-Jul-18 18:59N 59°32' E 024°07'3 5.7
2017-Jul-18 18:31N 59°31' E 024°13'3 5.8
2017-Jul-18 18:01N 59°30' E 024°18'3 5.5
2017-Jul-18 17:30N 59°30' E 024°24'3 5.6
2017-Jul-18 17:00N 59°30' E 024°29'3 5.4
2017-Jul-18 16:30N 59°30' E 024°34'3 5.6
2017-Jul-18 16:01N 59°31' E 024°40'2 5.0
2017-Jul-18 15:30N 59°31' E 024°45'3 5.3
2017-Jul-18 15:00N 59°29' E 024°45'1 1.3
2017-Jul-18 13:59N 59°27' E 024°44'0 0.0
2017-Jul-18 13:29N 59°27' E 024°44'0 0.0
2017-Jul-18 12:59N 59°27' E 024°44'0 0.0
2017-Jul-18 12:29N 59°27' E 024°44'0 0.0
2017-Jul-18 11:59N 59°27' E 024°44'0 0.0
2017-Jul-18 11:29N 59°27' E 024°44'0 0.0
2017-Jul-18 10:59N 59°27' E 024°44'0 0.0
2017-Jul-18 10:29N 59°27' E 024°44'0 0.0
2017-Jul-18 09:59N 59°27' E 024°44'0 0.0
2017-Jul-18 09:29N 59°27' E 024°44'0 0.0
2017-Jul-18 08:59N 59°27' E 024°44'0 0.0
2017-Jul-18 08:29N 59°27' E 024°44'0 0.0
2017-Jul-18 07:59N 59°27' E 024°44'0 0.0
2017-Jul-18 07:29N 59°27' E 024°44'0 0.0
2017-Jul-18 06:59N 59°27' E 024°44'0 0.0
2017-Jul-18 06:29N 59°27' E 024°44'0 0.0
2017-Jul-18 05:59N 59°27' E 024°44'0 0.0
2017-Jul-18 05:29N 59°27' E 024°44'0 0.0
2017-Jul-18 04:59N 59°27' E 024°44'0 0.0
2017-Jul-18 04:29N 59°27' E 024°44'0 0.0
2017-Jul-18 03:59N 59°27' E 024°44'0 0.0
2017-Jul-18 03:29N 59°27' E 024°44'0 0.0
2017-Jul-18 02:59N 59°27' E 024°44'0 0.0
2017-Jul-18 02:29N 59°27' E 024°44'0 0.0
2017-Jul-18 01:59N 59°27' E 024°44'0 0.0
2017-Jul-18 01:29N 59°27' E 024°44'0 0.0
2017-Jul-18 00:59N 59°27' E 024°44'0 0.0
2017-Jul-18 00:29N 59°27' E 024°44'0 0.0
2017-Jul-17 23:59N 59°27' E 024°44'0 0.0
2017-Jul-17 23:29N 59°27' E 024°44'0 0.0
2017-Jul-17 22:59N 59°27' E 024°44'0 0.0
2017-Jul-17 22:29N 59°27' E 024°44'0 0.0
2017-Jul-17 21:59N 59°27' E 024°44'0 0.0
2017-Jul-17 21:29N 59°27' E 024°44'0 0.0
2017-Jul-17 20:59N 59°27' E 024°44'0 0.0
2017-Jul-17 20:29N 59°27' E 024°44'0 0.0
2017-Jul-17 20:00N 59°27' E 024°44'0 0.0
2017-Jul-17 19:29N 59°27' E 024°44'0 0.0
2017-Jul-17 18:59N 59°27' E 024°44'0 0.0
2017-Jul-17 18:29N 59°27' E 024°44'0 0.0
2017-Jul-17 17:59N 59°27' E 024°44'0 0.0
2017-Jul-17 17:29N 59°27' E 024°44'0 0.0
2017-Jul-17 16:59N 59°27' E 024°44'0 0.0
2017-Jul-17 16:29N 59°27' E 024°44'0 0.0
2017-Jul-17 15:59N 59°27' E 024°44'0 0.0
2017-Jul-17 15:26N 59°27' E 024°44'0 0.0
2017-Jul-17 14:59N 59°27' E 024°44'0 0.0
2017-Jul-17 14:29N 59°27' E 024°44'0 0.0
2017-Jul-17 13:59N 59°27' E 024°44'0 0.0
2017-Jul-17 13:29N 59°27' E 024°44'0 0.3
2017-Jul-17 13:00N 59°27' E 024°44'2 4.5
2017-Jul-17 12:30N 59°30' E 024°43'3 5.3
2017-Jul-17 12:00N 59°30' E 024°38'3 5.6
2017-Jul-17 11:30N 59°31' E 024°33'3 5.7
2017-Jul-17 11:00N 59°31' E 024°27'3 6.4
2017-Jul-17 10:30N 59°32' E 024°21'3 7.0
2017-Jul-17 10:00N 59°33' E 024°14'2 4.8
2017-Jul-17 09:30N 59°34' E 024°10'2 3.6
2017-Jul-17 09:01N 59°34' E 024°06'1 3.0
2017-Jul-17 08:30N 59°35' E 024°09'2 4.5
2017-Jul-17 08:00N 59°35' E 024°14'2 4.3
2017-Jul-17 07:30N 59°36' E 024°18'3 5.1
2017-Jul-17 07:00N 59°37' E 024°22'2 4.5
2017-Jul-17 06:30N 59°37' E 024°26'2 3.2
2017-Jul-17 06:00N 59°37' E 024°30'2 3.8
2017-Jul-17 05:30N 59°37' E 024°33'2 4.1
2017-Jul-17 05:00N 59°37' E 024°38'3 5.8
2017-Jul-17 04:30N 59°38' E 024°43'3 5.1
2017-Jul-17 04:00N 59°40' E 024°46'3 5.2
2017-Jul-17 03:30N 59°42' E 024°49'3 5.3
2017-Jul-17 03:00N 59°44' E 024°52'3 5.6
2017-Jul-17 02:30N 59°46' E 024°56'3 5.7
2017-Jul-17 02:00N 59°48' E 024°60'3 5.8
2017-Jul-17 01:30N 59°50' E 025°04'3 6.0
2017-Jul-17 01:00N 59°51' E 025°10'3 6.1
2017-Jul-17 00:30N 59°52' E 025°15'3 5.9
2017-Jul-17 00:00N 59°53' E 025°21'3 5.9
2017-Jul-16 23:30N 59°54' E 025°27'3 6.1
2017-Jul-16 23:00N 59°54' E 025°33'3 6.0
2017-Jul-16 22:30N 59°55' E 025°39'3 5.9
2017-Jul-16 22:00N 59°55' E 025°44'3 5.7
2017-Jul-16 21:30N 59°56' E 025°50'3 6.4
2017-Jul-16 21:00N 59°59' E 025°54'3 6.6
2017-Jul-16 20:30N 60°01' E 025°59'2 4.8
2017-Jul-16 20:00N 60°03' E 026°03'3 5.7
2017-Jul-16 19:30N 60°04' E 026°07'3 5.4
2017-Jul-16 19:00N 60°06' E 026°11'3 5.7
2017-Jul-16 18:30N 60°08' E 026°15'3 5.7
2017-Jul-16 18:00N 60°10' E 026°19'3 5.8
2017-Jul-16 17:30N 60°13' E 026°23'3 5.4
2017-Jul-16 17:00N 60°15' E 026°26'3 5.3
2017-Jul-16 16:30N 60°16' E 026°30'3 5.8
2017-Jul-16 16:00N 60°18' E 026°34'3 5.2
2017-Jul-16 15:30N 60°20' E 026°38'2 5.0
2017-Jul-16 15:00N 60°22' E 026°42'2 4.8
2017-Jul-16 14:30N 60°23' E 026°46'2 4.9
2017-Jul-16 14:00N 60°24' E 026°51'3 5.4
2017-Jul-16 13:30N 60°25' E 026°55'2 3.6
2017-Jul-16 13:00N 60°26' E 026°58'1 2.8
2017-Jul-16 12:30N 60°28' E 026°58'1 2.1
2017-Jul-16 12:00N 60°28' E 026°57'0 0.1
2017-Jul-16 11:30N 60°28' E 026°57'0 0.0
2017-Jul-16 11:00N 60°28' E 026°57'0 0.0
2017-Jul-16 10:30N 60°28' E 026°57'0 0.0
2017-Jul-16 10:00N 60°28' E 026°57'0 0.0
2017-Jul-16 09:29N 60°28' E 026°57'0 0.0
2017-Jul-16 08:59N 60°28' E 026°57'0 0.0
2017-Jul-16 08:29N 60°28' E 026°57'0 0.0
2017-Jul-16 08:00N 60°28' E 026°57'0 0.0
2017-Jul-16 07:29N 60°28' E 026°57'0 0.0
2017-Jul-16 06:59N 60°28' E 026°57'0 0.0
2017-Jul-16 06:29N 60°28' E 026°57'0 0.0
2017-Jul-16 05:59N 60°28' E 026°57'0 0.0
2017-Jul-16 05:29N 60°28' E 026°57'0 0.0
2017-Jul-16 04:59N 60°28' E 026°57'0 0.0
2017-Jul-16 04:29N 60°28' E 026°57'0 0.0
2017-Jul-16 03:59N 60°28' E 026°57'0 0.0
2017-Jul-16 03:29N 60°28' E 026°57'0 0.0
2017-Jul-16 02:59N 60°28' E 026°57'0 0.0
2017-Jul-16 02:30N 60°28' E 026°57'0 0.0
2017-Jul-16 02:00N 60°28' E 026°57'0 0.0
2017-Jul-16 01:29N 60°28' E 026°57'0 0.0
2017-Jul-16 00:59N 60°28' E 026°57'0 0.0
2017-Jul-16 00:29N 60°28' E 026°57'0 0.0
2017-Jul-16 00:00N 60°28' E 026°57'0 0.0
2017-Jul-15 23:30N 60°28' E 026°57'0 0.0
2017-Jul-15 23:00N 60°28' E 026°57'0 0.0
2017-Jul-15 22:29N 60°28' E 026°57'0 0.0
2017-Jul-15 21:59N 60°28' E 026°57'0 0.0
2017-Jul-15 21:30N 60°28' E 026°57'0 0.0
2017-Jul-15 20:59N 60°28' E 026°57'0 0.0
2017-Jul-15 20:29N 60°28' E 026°57'0 0.0
2017-Jul-15 19:59N 60°28' E 026°57'0 0.0
2017-Jul-15 19:29N 60°28' E 026°57'0 0.0
2017-Jul-15 18:59N 60°28' E 026°57'0 0.0
2017-Jul-15 18:29N 60°28' E 026°57'0 0.0
2017-Jul-15 17:59N 60°28' E 026°57'0 0.0
2017-Jul-15 17:29N 60°28' E 026°57'0 0.0
2017-Jul-15 16:59N 60°28' E 026°57'0 0.0
2017-Jul-15 16:29N 60°28' E 026°57'0 0.0
2017-Jul-15 15:59N 60°28' E 026°57'0 0.0
2017-Jul-15 15:29N 60°28' E 026°57'0 0.0
2017-Jul-15 14:59N 60°28' E 026°57'0 0.0
2017-Jul-15 13:59N 60°28' E 026°57'0 0.0
2017-Jul-15 13:29N 60°28' E 026°57'0 0.0
2017-Jul-15 12:59N 60°28' E 026°57'0 0.0
2017-Jul-15 12:29N 60°28' E 026°57'0 0.0
2017-Jul-15 11:59N 60°28' E 026°57'0 0.0
2017-Jul-15 11:29N 60°28' E 026°57'0 0.0
2017-Jul-15 10:59N 60°28' E 026°57'0 0.0
2017-Jul-15 10:29N 60°28' E 026°57'0 0.0
2017-Jul-15 09:59N 60°28' E 026°57'0 0.0
2017-Jul-15 09:29N 60°28' E 026°57'0 0.0
2017-Jul-15 08:59N 60°28' E 026°57'0 0.0
2017-Jul-15 08:29N 60°28' E 026°57'0 0.0
2017-Jul-15 07:59N 60°28' E 026°57'0 0.0
2017-Jul-15 07:29N 60°28' E 026°57'0 0.0
2017-Jul-15 06:59N 60°28' E 026°57'0 0.0
2017-Jul-15 06:29N 60°28' E 026°57'0 0.0
2017-Jul-15 05:59N 60°28' E 026°57'0 0.0
2017-Jul-15 05:29N 60°28' E 026°57'0 0.0
2017-Jul-15 04:59N 60°28' E 026°57'0 0.0
2017-Jul-15 04:29N 60°28' E 026°57'0 0.0
2017-Jul-15 03:59N 60°28' E 026°57'0 0.0
2017-Jul-15 03:29N 60°28' E 026°57'0 0.0
2017-Jul-15 02:59N 60°28' E 026°57'0 0.0
2017-Jul-15 02:29N 60°28' E 026°57'0 0.0
2017-Jul-15 01:59N 60°28' E 026°57'0 0.0
2017-Jul-15 01:29N 60°28' E 026°57'0 0.0
2017-Jul-15 00:59N 60°28' E 026°57'0 0.0
2017-Jul-15 00:29N 60°28' E 026°57'0 0.0
2017-Jul-14 23:59N 60°28' E 026°57'0 0.0
2017-Jul-14 23:29N 60°28' E 026°57'0 0.0
2017-Jul-14 22:59N 60°28' E 026°57'0 0.0
2017-Jul-14 22:29N 60°28' E 026°57'0 0.0
2017-Jul-14 21:59N 60°28' E 026°57'0 0.0
2017-Jul-14 21:29N 60°28' E 026°57'0 0.0
2017-Jul-14 20:59N 60°28' E 026°57'0 0.0
2017-Jul-14 20:29N 60°28' E 026°57'0 0.0
2017-Jul-14 20:00N 60°28' E 026°57'  
Track history (hours):
 
Tides and Currents Weather Stations Pressure Air Temp Water Temp Dewpoint Dewpoint Depression Visibility Wind Speed Wind Dir Waves Ship Positions

Morgenster

Last reported at 2017-Jul-24 20:00 UTC. Time now 2017-Jul-28 06:33 UTC.
Position N 58°59' E 019°34'.

Length 38 m; draft 2.4 m.

Type: Sailing vessel. MMSI: 245136000.

Date/timePositionNaut miles runAvg speedWind from/ knotsBaromVisibWave heightAir tempDewpointWater temp
2017-Jul-24 20:00N 58°59' E 019°34'5 8.1
2017-Jul-24 19:25N 59°02' E 019°41'3 7.9
2017-Jul-24 19:00N 59°04' E 019°47'5 7.2
2017-Jul-24 18:19N 59°06' E 019°55'2 6.7
2017-Jul-24 18:00N 59°07' E 019°59'4 7.0
2017-Jul-24 17:24N 59°10' E 020°05'3 7.2
2017-Jul-24 17:00N 59°11' E 020°10'4 7.8
2017-Jul-24 16:30N 59°13' E 020°17'4 7.7
2017-Jul-24 16:00N 59°15' E 020°23'23 7.8
2017-Jul-24 13:01N 59°30' E 020°58'3 6.7
2017-Jul-24 12:31N 59°32' E 021°03'3 5.1
2017-Jul-24 12:00N 59°34' E 021°06'3 6.3
2017-Jul-24 11:30N 59°36' E 021°11'3 5.6
2017-Jul-24 11:01N 59°38' E 021°15'2 4.1
2017-Jul-24 10:30N 59°40' E 021°15'3 5.6
2017-Jul-24 10:00N 59°42' E 021°11'1 1.4
2017-Jul-24 09:30N 59°43' E 021°10'1 1.5
2017-Jul-24 09:00N 59°43' E 021°09'1 1.8
2017-Jul-24 08:31N 59°44' E 021°07'1 2.5
2017-Jul-24 08:00N 59°44' E 021°05'2 4.5
2017-Jul-24 07:30N 59°44' E 021°10'2 4.0
2017-Jul-24 07:00N 59°44' E 021°14'3 5.4
2017-Jul-24 06:31N 59°44' E 021°19'1 2.9
2017-Jul-24 06:00N 59°46' E 021°20'1 1.9
2017-Jul-24 05:31N 59°47' E 021°20'1 1.2
2017-Jul-24 05:00N 59°47' E 021°20'1 1.9
2017-Jul-24 04:30N 59°48' E 021°20'1 2.4
2017-Jul-24 04:00N 59°49' E 021°21'2 3.8
2017-Jul-24 03:30N 59°50' E 021°24'2 3.5
2017-Jul-24 03:00N 59°51' E 021°27'1 2.6
2017-Jul-24 02:30N 59°52' E 021°29'1 2.4
2017-Jul-24 02:01N 59°53' E 021°31'1 2.3
2017-Jul-24 01:30N 59°54' E 021°33'1 2.7
2017-Jul-24 01:00N 59°54' E 021°35'1 2.8
2017-Jul-24 00:30N 59°55' E 021°38'1 2.6
2017-Jul-24 00:00N 59°56' E 021°39'1 2.6
2017-Jul-23 23:30N 59°57' E 021°41'1 2.6
2017-Jul-23 23:00N 59°58' E 021°42'1 2.2
2017-Jul-23 22:30N 59°59' E 021°42'1 2.5
2017-Jul-23 22:00N 60°01' E 021°42'1 2.9
2017-Jul-23 21:30N 60°02' E 021°41'1 1.9
2017-Jul-23 21:00N 60°03' E 021°41'2 3.4
2017-Jul-23 20:30N 60°05' E 021°41'1 2.5
2017-Jul-23 20:00N 60°06' E 021°42'1 2.3
2017-Jul-23 19:30N 60°07' E 021°41'1 2.3
2017-Jul-23 19:01N 60°08' E 021°41'1 2.6
2017-Jul-23 18:30N 60°09' E 021°42'2 3.2
2017-Jul-23 18:01N 60°11' E 021°42'3 5.7
2017-Jul-23 17:30N 60°13' E 021°45'3 6.5
2017-Jul-23 17:00N 60°14' E 021°51'3 6.3
2017-Jul-23 16:30N 60°16' E 021°57'2 4.3
2017-Jul-23 16:00N 60°16' E 022°01'3 5.4
2017-Jul-23 15:31N 60°19' E 022°04'2 3.9
2017-Jul-23 15:00N 60°21' E 022°05'3 5.4
2017-Jul-23 14:30N 60°23' E 022°07'2 3.9
2017-Jul-23 14:00N 60°25' E 022°08'2 3.9
2017-Jul-23 13:30N 60°26' E 022°11'1 2.9
2017-Jul-23 13:01N 60°26' E 022°14'0 0.7
2017-Jul-23 12:30N 60°26' E 022°15'0 0.0
2017-Jul-23 11:59N 60°26' E 022°15'0 0.0
2017-Jul-23 11:29N 60°26' E 022°15'0 0.0
2017-Jul-23 10:59N 60°26' E 022°15'0 0.0
2017-Jul-23 10:29N 60°26' E 022°15'0 0.0
2017-Jul-23 09:59N 60°26' E 022°15'0 0.0
2017-Jul-23 09:29N 60°26' E 022°15'0 0.0
2017-Jul-23 08:59N 60°26' E 022°15'0 0.0
2017-Jul-23 08:29N 60°26' E 022°15'0 0.0
2017-Jul-23 07:59N 60°26' E 022°15'0 0.0
2017-Jul-23 07:29N 60°26' E 022°15'0 0.0
2017-Jul-23 06:54N 60°26' E 022°15'0 0.0
2017-Jul-23 06:29N 60°26' E 022°15'0 0.0
2017-Jul-23 05:59N 60°26' E 022°15'0 0.0
2017-Jul-23 05:29N 60°26' E 022°15'0 0.0
2017-Jul-23 04:59N 60°26' E 022°15'0 0.0
2017-Jul-23 04:29N 60°26' E 022°15'0 0.0
2017-Jul-23 03:59N 60°26' E 022°15'0 0.0
2017-Jul-23 03:29N 60°26' E 022°15'0 0.0
2017-Jul-23 02:59N 60°26' E 022°15'0 0.0
2017-Jul-23 02:29N 60°26' E 022°15'0 0.0
2017-Jul-23 01:59N 60°26' E 022°15'0 0.0
2017-Jul-23 01:29N 60°26' E 022°15'0 0.0
2017-Jul-23 00:59N 60°26' E 022°15'0 0.0
2017-Jul-23 00:29N 60°26' E 022°15'0 0.0
2017-Jul-22 23:59N 60°26' E 022°15'0 0.0
2017-Jul-22 23:29N 60°26' E 022°15'0 0.0
2017-Jul-22 22:59N 60°26' E 022°15'0 0.0
2017-Jul-22 22:29N 60°26' E 022°15'0 0.0
2017-Jul-22 21:59N 60°26' E 022°15'0 0.0
2017-Jul-22 21:29N 60°26' E 022°15'0 0.0
2017-Jul-22 20:58N 60°26' E 022°15'0 0.0
2017-Jul-22 20:29N 60°26' E 022°15'0 0.0
2017-Jul-22 19:58N 60°26' E 022°15'0 0.0
2017-Jul-22 19:27N 60°26' E 022°15'0 0.0
2017-Jul-22 18:59N 60°26' E 022°15'0 0.0
2017-Jul-22 18:29N 60°26' E 022°15'0 0.0
2017-Jul-22 17:59N 60°26' E 022°15'0 0.0
2017-Jul-22 17:29N 60°26' E 022°15'0 0.0
2017-Jul-22 16:59N 60°26' E 022°15'0 0.0
2017-Jul-22 16:30N 60°26' E 022°15'0 0.0
2017-Jul-22 15:59N 60°26' E 022°15'0 0.0
2017-Jul-22 15:29N 60°26' E 022°15'0 0.1
2017-Jul-22 15:00N 60°26' E 022°15'3 3.2
2017-Jul-22 14:00N 60°25' E 022°09'1 2.7
2017-Jul-22 13:30N 60°24' E 022°07'0 0.8
2017-Jul-22 13:00N 60°24' E 022°08'2 3.5
2017-Jul-22 12:30N 60°25' E 022°11'2 3.7
2017-Jul-22 12:00N 60°26' E 022°14'0 0.9
2017-Jul-22 11:30N 60°26' E 022°15'0 0.0
2017-Jul-22 11:00N 60°26' E 022°15'0 0.0
2017-Jul-22 10:30N 60°26' E 022°15'0 0.0
2017-Jul-22 10:00N 60°26' E 022°15'0 0.0
2017-Jul-22 09:30N 60°26' E 022°15'0 0.0
2017-Jul-22 09:00N 60°26' E 022°15'0 0.1
2017-Jul-22 08:30N 60°26' E 022°15'0 0.1
2017-Jul-22 08:00N 60°26' E 022°15'0 0.0
2017-Jul-22 07:30N 60°26' E 022°15'0 0.0
2017-Jul-22 07:00N 60°26' E 022°15'0 0.0
2017-Jul-22 06:30N 60°26' E 022°15'0 0.0
2017-Jul-22 06:00N 60°26' E 022°15'0 0.0
2017-Jul-22 05:30N 60°26' E 022°15'0 0.0
2017-Jul-22 05:00N 60°26' E 022°15'0 0.0
2017-Jul-22 04:30N 60°26' E 022°15'0 0.0
2017-Jul-22 04:00N 60°26' E 022°15'0 0.0
2017-Jul-22 03:30N 60°26' E 022°15'0 0.0
2017-Jul-22 02:57N 60°26' E 022°15'0 0.0
2017-Jul-22 02:30N 60°26' E 022°15'0 0.0
2017-Jul-22 01:57N 60°26' E 022°15'0 0.0
2017-Jul-22 01:30N 60°26' E 022°15'0 0.0
2017-Jul-22 00:57N 60°26' E 022°15'0 0.0
2017-Jul-22 00:30N 60°26' E 022°15'0 0.0
2017-Jul-22 00:00N 60°26' E 022°15'0 0.0
2017-Jul-21 23:30N 60°26' E 022°15'0 0.0
2017-Jul-21 23:00N 60°26' E 022°15'0 0.0
2017-Jul-21 22:30N 60°26' E 022°15'0 0.0
2017-Jul-21 22:00N 60°26' E 022°15'0 0.0
2017-Jul-21 21:30N 60°26' E 022°15'0 0.0
2017-Jul-21 21:00N 60°26' E 022°15'0 0.0
2017-Jul-21 20:30N 60°26' E 022°15'0 0.0
2017-Jul-21 19:57N 60°26' E 022°15'0 0.0
2017-Jul-21 19:30N 60°26' E 022°15'0 0.0
2017-Jul-21 18:57N 60°26' E 022°15'0 0.0
2017-Jul-21 18:30N 60°26' E 022°15'0 0.0
2017-Jul-21 18:00N 60°26' E 022°15'0 0.0
2017-Jul-21 17:27N 60°26' E 022°15'0 0.0
2017-Jul-21 17:00N 60°26' E 022°15'0 0.0
2017-Jul-21 16:28N 60°26' E 022°15'0 0.0
2017-Jul-21 16:01N 60°26' E 022°15'0 0.0
2017-Jul-21 15:30N 60°26' E 022°15'0 0.0
2017-Jul-21 15:00N 60°26' E 022°15'0 0.0
2017-Jul-21 14:30N 60°26' E 022°15'0 0.0
2017-Jul-21 14:00N 60°26' E 022°15'0 0.0
2017-Jul-21 13:30N 60°26' E 022°15'0 0.0
2017-Jul-21 13:00N 60°26' E 022°15'0 0.0
2017-Jul-21 12:30N 60°26' E 022°15'0 0.0
2017-Jul-21 12:00N 60°26' E 022°15'0 0.0
2017-Jul-21 11:30N 60°26' E 022°15'0 0.0
2017-Jul-21 11:00N 60°26' E 022°15'0 0.0
2017-Jul-21 10:30N 60°26' E 022°15'0 0.0
2017-Jul-21 10:00N 60°26' E 022°15'0 0.0
2017-Jul-21 09:30N 60°26' E 022°15'0 0.0
2017-Jul-21 09:00N 60°26' E 022°15'0 0.0
2017-Jul-21 08:30N 60°26' E 022°15'0 0.0
2017-Jul-21 08:00N 60°26' E 022°15'0 0.0
2017-Jul-21 07:30N 60°26' E 022°15'0 0.0
2017-Jul-21 07:00N 60°26' E 022°15'0 0.0
2017-Jul-21 06:30N 60°26' E 022°15'0 0.0
2017-Jul-21 06:00N 60°26' E 022°15'0 0.0
2017-Jul-21 05:30N 60°26' E 022°15'0 0.0
2017-Jul-21 05:00N 60°26' E 022°15'0 0.0
2017-Jul-21 04:30N 60°26' E 022°15'0 0.0
2017-Jul-21 04:00N 60°26' E 022°15'0 0.0
2017-Jul-21 03:30N 60°26' E 022°15'0 0.0
2017-Jul-21 03:00N 60°26' E 022°15'0 0.0
2017-Jul-21 02:30N 60°26' E 022°15'0 0.0
2017-Jul-21 02:00N 60°26' E 022°15'0 0.0
2017-Jul-21 01:30N 60°26' E 022°15'0 0.0
2017-Jul-21 01:00N 60°26' E 022°15'0 0.0
2017-Jul-21 00:30N 60°26' E 022°15'0 0.0
2017-Jul-21 00:00N 60°26' E 022°15'0 0.0
2017-Jul-20 23:30N 60°26' E 022°15'0 0.0
2017-Jul-20 23:00N 60°26' E 022°15'0 0.0
2017-Jul-20 22:30N 60°26' E 022°15'0 0.0
2017-Jul-20 22:00N 60°26' E 022°15'0 0.0
2017-Jul-20 21:30N 60°26' E 022°15'0 0.0
2017-Jul-20 20:56N 60°26' E 022°15'0 0.0
2017-Jul-20 20:29N 60°26' E 022°15'0 0.0
2017-Jul-20 20:00N 60°26' E 022°15'0 0.0
2017-Jul-20 19:27N 60°26' E 022°15'0 0.0
2017-Jul-20 18:57N 60°26' E 022°15'0 0.0
2017-Jul-20 18:30N 60°26' E 022°15'0 0.0
2017-Jul-20 18:00N 60°26' E 022°15'0 0.0
2017-Jul-20 17:30N 60°26' E 022°15'0 0.0
2017-Jul-20 17:00N 60°26' E 022°15'0 0.0
2017-Jul-20 16:28N 60°26' E 022°15'0 0.0
2017-Jul-20 15:57N 60°26' E 022°15'0 0.0
2017-Jul-20 15:30N 60°26' E 022°15'0 0.0
2017-Jul-20 15:00N 60°26' E 022°15'0 0.0
2017-Jul-20 14:00N 60°26' E 022°15'0 0.0
2017-Jul-20 13:30N 60°26' E 022°15'0 0.0
2017-Jul-20 13:00N 60°26' E 022°15'0 0.0
2017-Jul-20 12:30N 60°26' E 022°15'0 0.0
2017-Jul-20 12:00N 60°26' E 022°15'0 0.0
2017-Jul-20 11:30N 60°26' E 022°15'0 0.0
2017-Jul-20 11:00N 60°26' E 022°15'0 0.0
2017-Jul-20 10:30N 60°26' E 022°15'0 0.0
2017-Jul-20 10:00N 60°26' E 022°15'0 0.0
2017-Jul-20 09:31N 60°26' E 022°15'1 1.2
2017-Jul-20 09:00N 60°26' E 022°14'1 2.0
2017-Jul-20 08:30N 60°26' E 022°12'3 5.1
2017-Jul-20 08:00N 60°24' E 022°08'3 6.5
2017-Jul-20 07:30N 60°21' E 022°05'3 6.4
2017-Jul-20 07:00N 60°18' E 022°02'3 6.1
2017-Jul-20 06:30N 60°16' E 021°58'3 6.1
2017-Jul-20 06:00N 60°14' E 021°53'3 5.2
2017-Jul-20 05:30N 60°12' E 021°55'0 0.2
2017-Jul-20 04:59N 60°12' E 021°55'0 0.0
2017-Jul-20 04:29N 60°12' E 021°55'0 0.0
2017-Jul-20 03:59N 60°12' E 021°55'0 0.0
2017-Jul-20 03:29N 60°12' E 021°55'0 0.0
2017-Jul-20 02:59N 60°12' E 021°55'0 0.0
2017-Jul-20 02:29N 60°12' E 021°55'0 0.0
2017-Jul-20 01:59N 60°12' E 021°55'0 0.0
2017-Jul-20 01:29N 60°12' E 021°55'0 0.0
2017-Jul-20 00:59N 60°12' E 021°55'0 0.0
2017-Jul-20 00:29N 60°12' E 021°55'0 0.0
2017-Jul-19 23:59N 60°12' E 021°55'0 0.0
2017-Jul-19 23:29N 60°12' E 021°55'0 0.0
2017-Jul-19 22:59N 60°12' E 021°55'0 0.0
2017-Jul-19 22:29N 60°12' E 021°55'0 0.0
2017-Jul-19 21:59N 60°12' E 021°55'0 0.0
2017-Jul-19 21:29N 60°12' E 021°55'0 0.0
2017-Jul-19 20:59N 60°12' E 021°55'0 0.0
2017-Jul-19 20:29N 60°12' E 021°55'0 0.0
2017-Jul-19 20:00N 60°12' E 021°55'0 0.0
2017-Jul-19 19:28N 60°12' E 021°55'0 0.0
2017-Jul-19 18:59N 60°12' E 021°55'0 0.0
2017-Jul-19 18:29N 60°12' E 021°55'0 0.0
2017-Jul-19 17:59N 60°12' E 021°55'0 0.0
2017-Jul-19 17:29N 60°12' E 021°55'0 0.0
2017-Jul-19 16:59N 60°12' E 021°55'0 0.0
2017-Jul-19 16:29N 60°12' E 021°55'0 0.0
2017-Jul-19 15:59N 60°12' E 021°55'0 0.0
2017-Jul-19 15:29N 60°12' E 021°55'0 0.0
2017-Jul-19 14:59N 60°12' E 021°55'0 0.0
2017-Jul-19 14:29N 60°12' E 021°55'0 0.0
2017-Jul-19 13:59N 60°12' E 021°55'0 0.0
2017-Jul-19 13:29N 60°12' E 021°55'0 0.0
2017-Jul-19 12:59N 60°12' E 021°55'0 0.0
2017-Jul-19 12:29N 60°12' E 021°55'0 0.0
2017-Jul-19 12:00N 60°12' E 021°55'0 0.4
2017-Jul-19 11:30N 60°12' E 021°55'1 2.5
2017-Jul-19 11:00N 60°12' E 021°58'3 5.1
2017-Jul-19 10:30N 60°13' E 022°02'2 4.6
2017-Jul-19 10:00N 60°14' E 022°07'2 4.5
2017-Jul-19 09:30N 60°12' E 022°10'2 4.3
2017-Jul-19 09:00N 60°11' E 022°14'2 3.9
2017-Jul-19 08:30N 60°10' E 022°17'3 5.5
2017-Jul-19 08:00N 60°07' E 022°18'3 5.3
2017-Jul-19 07:30N 60°05' E 022°20'3 5.4
2017-Jul-19 07:00N 60°03' E 022°22'3 5.8
2017-Jul-19 06:30N 59°60' E 022°23'3 5.9
2017-Jul-19 06:00N 59°57' E 022°23'3 5.5
2017-Jul-19 05:30N 59°54' E 022°25'2 4.6
2017-Jul-19 05:00N 59°54' E 022°30'3 5.3
2017-Jul-19 04:30N 59°55' E 022°35'3 5.2
2017-Jul-19 04:00N 59°55' E 022°40'3 5.3
2017-Jul-19 03:30N 59°54' E 022°45'3 5.4
2017-Jul-19 03:00N 59°52' E 022°49'3 5.2
2017-Jul-19 02:30N 59°51' E 022°53'3 5.2
2017-Jul-19 02:00N 59°48' E 022°52'3 5.0
2017-Jul-19 01:30N 59°47' E 022°56'3 5.0
2017-Jul-19 01:00N 59°46' E 023°01'3 5.9
2017-Jul-19 00:30N 59°44' E 023°04'2 4.8
2017-Jul-19 00:00N 59°43' E 023°08'3 5.1
2017-Jul-18 23:30N 59°42' E 023°13'3 6.2
2017-Jul-18 23:00N 59°41' E 023°19'4 7.4
2017-Jul-18 22:30N 59°39' E 023°26'4 7.2
2017-Jul-18 22:00N 59°38' E 023°32'4 7.0
2017-Jul-18 21:30N 59°36' E 023°38'3 6.5
2017-Jul-18 21:00N 59°35' E 023°44'3 6.8
2017-Jul-18 20:30N 59°34' E 023°51'3 5.9
2017-Jul-18 20:00N 59°34' E 023°57'3 6.3
2017-Jul-18 19:30N 59°33' E 024°02'3 5.1
2017-Jul-18 18:59N 59°32' E 024°07'3 5.7
2017-Jul-18 18:31N 59°31' E 024°13'3 5.8
2017-Jul-18 18:01N 59°30' E 024°18'3 5.5
2017-Jul-18 17:30N 59°30' E 024°24'3 5.6
2017-Jul-18 17:00N 59°30' E 024°29'3 5.4
2017-Jul-18 16:30N 59°30' E 024°34'3 5.6
2017-Jul-18 16:01N 59°31' E 024°40'2 5.0
2017-Jul-18 15:30N 59°31' E 024°45'3 5.3
2017-Jul-18 15:00N 59°29' E 024°45'1 1.3
2017-Jul-18 13:59N 59°27' E 024°44'0 0.0
2017-Jul-18 13:29N 59°27' E 024°44'0 0.0
2017-Jul-18 12:59N 59°27' E 024°44'0 0.0
2017-Jul-18 12:29N 59°27' E 024°44'0 0.0
2017-Jul-18 11:59N 59°27' E 024°44'0 0.0
2017-Jul-18 11:29N 59°27' E 024°44'0 0.0
2017-Jul-18 10:59N 59°27' E 024°44'0 0.0
2017-Jul-18 10:29N 59°27' E 024°44'0 0.0
2017-Jul-18 09:59N 59°27' E 024°44'0 0.0
2017-Jul-18 09:29N 59°27' E 024°44'0 0.0
2017-Jul-18 08:59N 59°27' E 024°44'0 0.0
2017-Jul-18 08:29N 59°27' E 024°44'0 0.0
2017-Jul-18 07:59N 59°27' E 024°44'0 0.0
2017-Jul-18 07:29N 59°27' E 024°44'0 0.0
2017-Jul-18 06:59N 59°27' E 024°44'0 0.0
2017-Jul-18 06:29N 59°27' E 024°44'0 0.0
2017-Jul-18 05:59N 59°27' E 024°44'0 0.0
2017-Jul-18 05:29N 59°27' E 024°44'0 0.0
2017-Jul-18 04:59N 59°27' E 024°44'0 0.0
2017-Jul-18 04:29N 59°27' E 024°44'0 0.0
2017-Jul-18 03:59N 59°27' E 024°44'0 0.0
2017-Jul-18 03:29N 59°27' E 024°44'0 0.0
2017-Jul-18 02:59N 59°27' E 024°44'0 0.0
2017-Jul-18 02:29N 59°27' E 024°44'0 0.0
2017-Jul-18 01:59N 59°27' E 024°44'0 0.0
2017-Jul-18 01:29N 59°27' E 024°44'0 0.0
2017-Jul-18 00:59N 59°27' E 024°44'0 0.0
2017-Jul-18 00:29N 59°27' E 024°44'0 0.0
2017-Jul-17 23:59N 59°27' E 024°44'0 0.0
2017-Jul-17 23:29N 59°27' E 024°44'0 0.0
2017-Jul-17 22:59N 59°27' E 024°44'0 0.0
2017-Jul-17 22:29N 59°27' E 024°44'0 0.0
2017-Jul-17 21:59N 59°27' E 024°44'0 0.0
2017-Jul-17 21:29N 59°27' E 024°44'0 0.0
2017-Jul-17 20:59N 59°27' E 024°44'0 0.0
2017-Jul-17 20:29N 59°27' E 024°44'0 0.0
2017-Jul-17 20:00N 59°27' E 024°44'0 0.0
2017-Jul-17 19:29N 59°27' E 024°44'0 0.0
2017-Jul-17 18:59N 59°27' E 024°44'0 0.0
2017-Jul-17 18:29N 59°27' E 024°44'0 0.0
2017-Jul-17 17:59N 59°27' E 024°44'0 0.0
2017-Jul-17 17:29N 59°27' E 024°44'0 0.0
2017-Jul-17 16:59N 59°27' E 024°44'0 0.0
2017-Jul-17 16:29N 59°27' E 024°44'0 0.0
2017-Jul-17 15:59N 59°27' E 024°44'0 0.0
2017-Jul-17 15:26N 59°27' E 024°44'0 0.0
2017-Jul-17 14:59N 59°27' E 024°44'0 0.0
2017-Jul-17 14:29N 59°27' E 024°44'0 0.0
2017-Jul-17 13:59N 59°27' E 024°44'0 0.0
2017-Jul-17 13:29N 59°27' E 024°44'0 0.3
2017-Jul-17 13:00N 59°27' E 024°44'2 4.5
2017-Jul-17 12:30N 59°30' E 024°43'3 5.3
2017-Jul-17 12:00N 59°30' E 024°38'3 5.6
2017-Jul-17 11:30N 59°31' E 024°33'3 5.7
2017-Jul-17 11:00N 59°31' E 024°27'3 6.4
2017-Jul-17 10:30N 59°32' E 024°21'3 7.0
2017-Jul-17 10:00N 59°33' E 024°14'2 4.8
2017-Jul-17 09:30N 59°34' E 024°10'2 3.6
2017-Jul-17 09:01N 59°34' E 024°06'1 3.0
2017-Jul-17 08:30N 59°35' E 024°09'2 4.5
2017-Jul-17 08:00N 59°35' E 024°14'2 4.3
2017-Jul-17 07:30N 59°36' E 024°18'3 5.1
2017-Jul-17 07:00N 59°37' E 024°22'2 4.5
2017-Jul-17 06:30N 59°37' E 024°26'2 3.2
2017-Jul-17 06:00N 59°37' E 024°30'2 3.8
2017-Jul-17 05:30N 59°37' E 024°33'2 4.1
2017-Jul-17 05:00N 59°37' E 024°38'3 5.8
2017-Jul-17 04:30N 59°38' E 024°43'3 5.1
2017-Jul-17 04:00N 59°40' E 024°46'3 5.2
2017-Jul-17 03:30N 59°42' E 024°49'3 5.3
2017-Jul-17 03:00N 59°44' E 024°52'3 5.6
2017-Jul-17 02:30N 59°46' E 024°56'3 5.7
2017-Jul-17 02:00N 59°48' E 024°60'3 5.8
2017-Jul-17 01:30N 59°50' E 025°04'3 6.0
2017-Jul-17 01:00N 59°51' E 025°10'3 6.1
2017-Jul-17 00:30N 59°52' E 025°15'3 5.9
2017-Jul-17 00:00N 59°53' E 025°21'3 5.9
2017-Jul-16 23:30N 59°54' E 025°27'3 6.1
2017-Jul-16 23:00N 59°54' E 025°33'3 6.0
2017-Jul-16 22:30N 59°55' E 025°39'3 5.9
2017-Jul-16 22:00N 59°55' E 025°44'3 5.7
2017-Jul-16 21:30N 59°56' E 025°50'3 6.4
2017-Jul-16 21:00N 59°59' E 025°54'3 6.6
2017-Jul-16 20:30N 60°01' E 025°59'2 4.8
2017-Jul-16 20:00N 60°03' E 026°03'3 5.7
2017-Jul-16 19:30N 60°04' E 026°07'3 5.4
2017-Jul-16 19:00N 60°06' E 026°11'3 5.7
2017-Jul-16 18:30N 60°08' E 026°15'3 5.7
2017-Jul-16 18:00N 60°10' E 026°19'3 5.8
2017-Jul-16 17:30N 60°13' E 026°23'3 5.4
2017-Jul-16 17:00N 60°15' E 026°26'3 5.3
2017-Jul-16 16:30N 60°16' E 026°30'3 5.8
2017-Jul-16 16:00N 60°18' E 026°34'3 5.2
2017-Jul-16 15:30N 60°20' E 026°38'2 5.0
2017-Jul-16 15:00N 60°22' E 026°42'2 4.8
2017-Jul-16 14:30N 60°23' E 026°46'2 4.9
2017-Jul-16 14:00N 60°24' E 026°51'3 5.4
2017-Jul-16 13:30N 60°25' E 026°55'2 3.6
2017-Jul-16 13:00N 60°26' E 026°58'1 2.8
2017-Jul-16 12:30N 60°28' E 026°58'1 2.1
2017-Jul-16 12:00N 60°28' E 026°57'0 0.1
2017-Jul-16 11:30N 60°28' E 026°57'0 0.0
2017-Jul-16 11:00N 60°28' E 026°57'0 0.0
2017-Jul-16 10:30N 60°28' E 026°57'0 0.0
2017-Jul-16 10:00N 60°28' E 026°57'0 0.0
2017-Jul-16 09:29N 60°28' E 026°57'0 0.0
2017-Jul-16 08:59N 60°28' E 026°57'0 0.0
2017-Jul-16 08:29N 60°28' E 026°57'0 0.0
2017-Jul-16 08:00N 60°28' E 026°57'0 0.0
2017-Jul-16 07:29N 60°28' E 026°57'0 0.0
2017-Jul-16 06:59N 60°28' E 026°57'0 0.0
2017-Jul-16 06:29N 60°28' E 026°57'0 0.0
2017-Jul-16 05:59N 60°28' E 026°57'0 0.0
2017-Jul-16 05:29N 60°28' E 026°57'0 0.0
2017-Jul-16 04:59N 60°28' E 026°57'0 0.0
2017-Jul-16 04:29N 60°28' E 026°57'0 0.0
2017-Jul-16 03:59N 60°28' E 026°57'0 0.0
2017-Jul-16 03:29N 60°28' E 026°57'0 0.0
2017-Jul-16 02:59N 60°28' E 026°57'0 0.0
2017-Jul-16 02:30N 60°28' E 026°57'0 0.0
2017-Jul-16 02:00N 60°28' E 026°57'0 0.0
2017-Jul-16 01:29N 60°28' E 026°57'0 0.0
2017-Jul-16 00:59N 60°28' E 026°57'0 0.0
2017-Jul-16 00:29N 60°28' E 026°57'0 0.0
2017-Jul-16 00:00N 60°28' E 026°57'0 0.0
2017-Jul-15 23:30N 60°28' E 026°57'0 0.0
2017-Jul-15 23:00N 60°28' E 026°57'0 0.0
2017-Jul-15 22:29N 60°28' E 026°57'0 0.0
2017-Jul-15 21:59N 60°28' E 026°57'0 0.0
2017-Jul-15 21:30N 60°28' E 026°57'0 0.0
2017-Jul-15 20:59N 60°28' E 026°57'0 0.0
2017-Jul-15 20:29N 60°28' E 026°57'0 0.0
2017-Jul-15 19:59N 60°28' E 026°57'0 0.0
2017-Jul-15 19:29N 60°28' E 026°57'0 0.0
2017-Jul-15 18:59N 60°28' E 026°57'0 0.0
2017-Jul-15 18:29N 60°28' E 026°57'0 0.0
2017-Jul-15 17:59N 60°28' E 026°57'0 0.0
2017-Jul-15 17:29N 60°28' E 026°57'0 0.0
2017-Jul-15 16:59N 60°28' E 026°57'0 0.0
2017-Jul-15 16:29N 60°28' E 026°57'0 0.0
2017-Jul-15 15:59N 60°28' E 026°57'0 0.0
2017-Jul-15 15:29N 60°28' E 026°57'0 0.0
2017-Jul-15 14:59N 60°28' E 026°57'0 0.0
2017-Jul-15 13:59N 60°28' E 026°57'0 0.0
2017-Jul-15 13:29N 60°28' E 026°57'0 0.0
2017-Jul-15 12:59N 60°28' E 026°57'0 0.0
2017-Jul-15 12:29N 60°28' E 026°57'0 0.0
2017-Jul-15 11:59N 60°28' E 026°57'0 0.0
2017-Jul-15 11:29N 60°28' E 026°57'0 0.0
2017-Jul-15 10:59N 60°28' E 026°57'0 0.0
2017-Jul-15 10:29N 60°28' E 026°57'0 0.0
2017-Jul-15 09:59N 60°28' E 026°57'0 0.0
2017-Jul-15 09:29N 60°28' E 026°57'0 0.0
2017-Jul-15 08:59N 60°28' E 026°57'0 0.0
2017-Jul-15 08:29N 60°28' E 026°57'0 0.0
2017-Jul-15 07:59N 60°28' E 026°57'0 0.0
2017-Jul-15 07:29N 60°28' E 026°57'0 0.0
2017-Jul-15 06:59N 60°28' E 026°57'0 0.0
2017-Jul-15 06:29N 60°28' E 026°57'0 0.0
2017-Jul-15 05:59N 60°28' E 026°57'0 0.0
2017-Jul-15 05:29N 60°28' E 026°57'0 0.0
2017-Jul-15 04:59N 60°28' E 026°57'0 0.0
2017-Jul-15 04:29N 60°28' E 026°57'0 0.0
2017-Jul-15 03:59N 60°28' E 026°57'0 0.0
2017-Jul-15 03:29N 60°28' E 026°57'0 0.0
2017-Jul-15 02:59N 60°28' E 026°57'0 0.0
2017-Jul-15 02:29N 60°28' E 026°57'0 0.0
2017-Jul-15 01:59N 60°28' E 026°57'0 0.0
2017-Jul-15 01:29N 60°28' E 026°57'0 0.0
2017-Jul-15 00:59N 60°28' E 026°57'0 0.0
2017-Jul-15 00:29N 60°28' E 026°57'0 0.0
2017-Jul-14 23:59N 60°28' E 026°57'0 0.0
2017-Jul-14 23:29N 60°28' E 026°57'0 0.0
2017-Jul-14 22:59N 60°28' E 026°57'0 0.0
2017-Jul-14 22:29N 60°28' E 026°57'0 0.0
2017-Jul-14 21:59N 60°28' E 026°57'0 0.0
2017-Jul-14 21:29N 60°28' E 026°57'0 0.0
2017-Jul-14 20:59N 60°28' E 026°57'0 0.0
2017-Jul-14 20:29N 60°28' E 026°57'0 0.0
2017-Jul-14 20:00N 60°28' E 026°57'  

Dump ship's entire track history